Rankings de siempre
Mejores tiempos personales válidos de atleta a través de todos los eventos y temporadas. Cada atleta aparece una vez por división.
Busca por nombre y abre la página donde está clasificado este récord de división.
104,510 atletas clasificados
| Pos. | Pos. AG | Atleta | Nacionalidad | Categoría de edad | TiempoMejor tiempo | Diferencia |
|---|---|---|---|---|---|---|
| 12001 | #1623 | Demis BrownUSA · W 16-24 · AG #1623 | USA | W 16-24 | 1:18:42 | +39:06 |
| 12002 | #620 | Jill RobinsUSA · W 45-49 · AG #620 | USA | W 45-49 | 1:18:42 | +39:06 |
| 12003 | #1418 | Karen NolanIRL · W 40-44 · AG #1418 | IRL | W 40-44 | 1:18:42 | +39:06 |
| 12004 | #3254 | Bernice KellyAUS · W 30-34 · AG #3254 | AUS | W 30-34 | 1:18:42 | +39:06 |
| 12005 | #3248 | Rosalind MartinAUS · W 30-34 · AG #3248 | AUS | W 30-34 | 1:18:42 | +39:06 |
| 12006 | #2139 | Alex PenroseIMN · W 35-39 · AG #2139 | IMN | W 35-39 | 1:18:42 | +39:06 |
| 12007 | #3307 | Claire RieuFRA · W 25-29 · AG #3307 | FRA | W 25-29 | 1:18:42 | +39:06 |
| 12008 | #3249 | Giulia RausITA · W 30-34 · AG #3249 | ITA | W 30-34 | 1:18:42 | +39:06 |
| 12009 | #3308 | Taylor JordanUSA · W 25-29 · AG #3308 | USA | W 25-29 | 1:18:42 | +39:06 |
| 12010 | #3255 | Jessica DemelasITA · W 30-34 · AG #3255 | ITA | W 30-34 | 1:18:42 | +39:06 |
| 12011 | #2140 | Chloe BassettGBR · W 35-39 · AG #2140 | GBR | W 35-39 | 1:18:42 | +39:06 |
| 12012 | #3309 | Lexi TronoloneUSA · W 25-29 · AG #3309 | USA | W 25-29 | 1:18:43 | +39:07 |
| 12013 | #1626 | Nikola LiszkaPOL · W 16-24 · AG #1626 | POL | W 16-24 | 1:18:43 | +39:07 |
| 12014 | #3310 | Risako SuzukiJPN · W 25-29 · AG #3310 | JPN | W 25-29 | 1:18:43 | +39:07 |
| 12015 | #1420 | Elaine FarrellIRL · W 40-44 · AG #1420 | IRL | W 40-44 | 1:18:43 | +39:07 |
| 12016 | #621 | Kylee HenriksenNZL · W 45-49 · AG #621 | NZL | W 45-49 | 1:18:43 | +39:07 |
| 12017 | #2142 | Kaisa PesonenFIN · W 35-39 · AG #2142 | FIN | W 35-39 | 1:18:43 | +39:07 |
| 12018 | #3257 | Valentina StevensonHYR · W 30-34 · AG #3257 | HYR | W 30-34 | 1:18:43 | +39:07 |
| 12019 | #3311 | Emily ClarkGBR · W 25-29 · AG #3311 | GBR | W 25-29 | 1:18:43 | +39:07 |
| 12020 | #3312 | Katerina Sid UstalliGRE · W 25-29 · AG #3312 | GRE | W 25-29 | 1:18:43 | +39:07 |
| 12021 | #1627 | Meijke MeursingNED · W 16-24 · AG #1627 | NED | W 16-24 | 1:18:43 | +39:07 |
| 12022 | #1628 | Solene ArbogastFRA · W 16-24 · AG #1628 | FRA | W 16-24 | 1:18:43 | +39:07 |
| 12023 | #3313 | Lola PelléFRA · W 25-29 · AG #3313 | FRA | W 25-29 | 1:18:43 | +39:07 |
| 12024 | #3314 | Abriana JacobsUSA · W 25-29 · AG #3314 | USA | W 25-29 | 1:18:43 | +39:07 |
| 12025 | #3260 | Nadine MurrayIRL · W 30-34 · AG #3260 | IRL | W 30-34 | 1:18:43 | +39:07 |
Página 481 de 4,181